Time;durP1;ratioP1;P1;durP2;ratioP2;P2;SDS_P1;SDS_P2;PMS_P1;PMS_P2;Temp;Humidity;BMP_temperature;BMP_pressure;BME280_temperature;BME280_humidity;BME280_pressure;Samples;Min_cycle;Max_cycle;Signal;HPM_P1;HPM_P2
2023/07/27 00:01:05;;;;;;;7.13;3.33;;;13.80;99.90;;;;;;5091387;28;20047;-63
2023/07/27 00:03:31;;;;;;;4.15;2.22;;;13.70;99.90;;;;;;5090913;28;20036;-62
2023/07/27 00:05:57;;;;;;;6.97;3.15;;;13.70;99.90;;;;;;5091429;28;20501;-62
2023/07/27 00:08:22;;;;;;;6.25;2.85;;;13.70;99.90;;;;;;5092413;28;20028;-62
2023/07/27 00:10:48;;;;;;;7.65;2.75;;;13.70;99.90;;;;;;5091882;28;20043;-62
2023/07/27 00:13:13;;;;;;;8.30;3.28;;;13.70;99.90;;;;;;5124088;27;20044;-62
2023/07/27 00:15:39;;;;;;;11.52;3.15;;;13.70;99.90;;;;;;5124955;27;20090;-63
2023/07/27 00:18:05;;;;;;;6.65;3.35;;;13.70;99.90;;;;;;5125393;27;20052;-62
2023/07/27 00:20:31;;;;;;;7.90;3.15;;;13.70;99.90;;;;;;5124257;27;20051;-62
2023/07/27 00:22:56;;;;;;;5.38;2.78;;;13.70;99.90;;;;;;5124511;28;20133;-62
2023/07/27 00:25:22;;;;;;;6.05;3.17;;;13.70;99.90;;;;;;5090974;28;20046;-62
2023/07/27 00:27:48;;;;;;;6.35;3.30;;;13.70;99.90;;;;;;5123789;28;20047;-62
2023/07/27 00:30:13;;;;;;;8.55;3.55;;;13.70;99.90;;;;;;5125155;28;20040;-62
2023/07/27 00:32:39;;;;;;;5.32;2.63;;;13.70;99.90;;;;;;5124527;28;20118;-62
2023/07/27 00:35:06;;;;;;;5.03;2.88;;;13.70;99.90;;;;;;5124672;28;20101;-62
2023/07/27 00:37:31;;;;;;;6.90;2.83;;;13.70;99.90;;;;;;5092051;28;20047;-63
2023/07/27 00:40:00;;;;;;;5.78;2.95;;;13.70;99.90;;;;;;5123858;28;20036;-62
2023/07/27 00:42:27;;;;;;;6.88;2.85;;;13.70;99.90;;;;;;5127929;27;20044;-63
2023/07/27 00:44:52;;;;;;;6.72;2.17;;;13.70;99.90;;;;;;5129069;27;20127;-62
2023/07/27 00:47:18;;;;;;;5.75;2.65;;;13.70;99.90;;;;;;5095545;28;20115;-63
2023/07/27 00:49:44;;;;;;;7.03;3.30;;;13.70;99.90;;;;;;5128587;27;20091;-63
2023/07/27 00:52:10;;;;;;;5.32;2.60;;;13.70;99.90;;;;;;5095813;28;20044;-62
2023/07/27 00:54:36;;;;;;;7.32;2.35;;;13.80;99.90;;;;;;5093573;28;20074;-62
2023/07/27 00:57:02;;;;;;;6.57;2.55;;;13.70;99.90;;;;;;5094619;28;20044;-63
2023/07/27 00:59:28;;;;;;;3.92;2.13;;;13.70;99.90;;;;;;5095901;28;20047;-63
2023/07/27 01:01:54;;;;;;;7.72;3.40;;;13.70;99.90;;;;;;5093611;28;20040;-63
2023/07/27 01:04:21;;;;;;;6.05;2.90;;;13.70;99.90;;;;;;5077470;28;20115;-62
2023/07/27 01:06:46;;;;;;;5.53;2.38;;;13.70;99.90;;;;;;5095223;28;20051;-62
2023/07/27 01:09:12;;;;;;;6.78;2.70;;;13.70;99.90;;;;;;5093687;28;20040;-63
2023/07/27 01:11:52;;;;;;;4.35;2.88;;;13.70;99.90;;;;;;5095518;28;20157;-63
2023/07/27 01:14:36;;;;;;;6.90;2.67;;;13.70;99.90;;;;;;5095967;28;20427;-62
2023/07/27 01:17:09;;;;;;;5.03;2.58;;;13.70;99.90;;;;;;5076480;28;20040;-62
2023/07/27 01:19:53;;;;;;;9.73;3.15;;;13.70;99.90;;;;;;5094011;28;20493;-62
2023/07/27 01:22:31;;;;;;;6.07;2.63;;;13.70;99.90;;;;;;5094740;28;20043;-63
2023/07/27 01:25:47;;;;;;;5.30;2.60;;;13.80;99.90;;;;;;5094152;28;20051;-62
2023/07/27 01:28:43;;;;;;;5.45;2.78;;;13.80;99.90;;;;;;5089643;28;20040;-63
2023/07/27 01:31:17;;;;;;;5.35;2.40;;;13.80;99.90;;;;;;5093639;28;20044;-62
2023/07/27 01:33:48;;;;;;;4.85;2.72;;;13.70;99.90;;;;;;5094646;28;20132;-63
2023/07/27 01:36:21;;;;;;;5.68;2.92;;;13.70;99.90;;;;;;5094658;28;20509;-62
2023/07/27 01:38:50;;;;;;;5.35;2.67;;;13.80;99.90;;;;;;5076739;28;20051;-62
2023/07/27 01:41:17;;;;;;;5.53;2.60;;;13.80;99.90;;;;;;5094906;28;20510;-62
2023/07/27 01:43:44;;;;;;;6.32;2.55;;;13.80;99.90;;;;;;5092317;28;20044;-63
2023/07/27 01:46:11;;;;;;;8.82;3.65;;;13.80;99.90;;;;;;5095175;28;20040;-62
2023/07/27 01:48:40;;;;;;;5.43;3.08;;;13.70;99.90;;;;;;5093676;28;20426;-63
2023/07/27 01:51:08;;;;;;;4.65;2.45;;;13.70;99.90;;;;;;5094269;28;20051;-62
2023/07/27 01:53:36;;;;;;;4.40;2.10;;;13.70;99.90;;;;;;5093473;28;20123;-63
2023/07/27 01:56:04;;;;;;;6.35;3.15;;;13.80;99.90;;;;;;5076626;28;20062;-63
2023/07/27 01:58:31;;;;;;;10.90;2.88;;;13.80;99.90;;;;;;5092925;28;20173;-63
2023/07/27 02:00:57;;;;;;;4.28;3.00;;;13.80;99.90;;;;;;5094445;28;20100;-62
2023/07/27 02:03:24;;;;;;;6.90;3.47;;;13.80;99.90;;;;;;5074243;28;20045;-62
2023/07/27 02:05:50;;;;;;;4.97;2.65;;;13.80;99.90;;;;;;5071962;28;20044;-63
2023/07/27 02:08:15;;;;;;;5.70;3.10;;;13.80;99.90;;;;;;5074653;28;20039;-62
2023/07/27 02:10:41;;;;;;;5.07;2.50;;;13.80;99.90;;;;;;5073927;28;20516;-63
2023/07/27 02:13:27;;;;;;;7.75;2.60;;;13.80;99.90;;;;;;5091576;28;20126;-62
2023/07/27 02:16:27;;;;;;;6.85;3.15;;;13.80;99.90;;;;;;5092989;28;20369;-63
2023/07/27 02:18:54;;;;;;;6.05;2.67;;;13.80;99.90;;;;;;5092376;28;20050;-63
2023/07/27 02:21:21;;;;;;;8.50;3.55;;;13.80;99.90;;;;;;5093058;28;20084;-63
2023/07/27 02:23:48;;;;;;;5.60;2.53;;;13.80;99.90;;;;;;5093787;28;20047;-63
2023/07/27 02:26:14;;;;;;;7.35;2.63;;;13.80;99.90;;;;;;5093443;28;20036;-63
2023/07/27 02:28:40;;;;;;;5.40;2.63;;;13.80;99.90;;;;;;5093883;28;20032;-63
2023/07/27 02:31:05;;;;;;;6.88;3.38;;;13.90;99.90;;;;;;5127211;27;20086;-63
2023/07/27 02:33:31;;;;;;;5.35;3.17;;;13.90;99.90;;;;;;5092294;28;20044;-63
2023/07/27 02:35:57;;;;;;;6.90;3.17;;;13.90;99.90;;;;;;5126740;27;20404;-63
2023/07/27 02:38:23;;;;;;;7.45;2.85;;;13.90;99.90;;;;;;5092931;28;20123;-63
2023/07/27 02:40:49;;;;;;;5.15;2.50;;;13.90;99.90;;;;;;5125615;27;20126;-63
2023/07/27 02:43:15;;;;;;;7.13;3.30;;;13.90;99.90;;;;;;5075713;28;20047;-63
2023/07/27 02:45:40;;;;;;;5.80;2.88;;;13.90;99.90;;;;;;5093421;28;20388;-63
2023/07/27 02:48:06;;;;;;;10.82;2.85;;;13.90;99.90;;;;;;5093244;28;20435;-63
2023/07/27 02:50:32;;;;;;;6.15;2.33;;;14.00;99.90;;;;;;5125946;27;20127;-63
2023/07/27 02:52:57;;;;;;;6.43;3.15;;;14.00;99.90;;;;;;5126070;27;20082;-63
2023/07/27 02:55:23;;;;;;;7.40;3.35;;;14.00;99.90;;;;;;5092728;28;20072;-63
2023/07/27 02:57:49;;;;;;;5.65;2.70;;;14.00;99.90;;;;;;5093312;28;20120;-63
2023/07/27 03:00:14;;;;;;;6.40;2.63;;;14.00;99.90;;;;;;5092482;28;20044;-63
2023/07/27 03:02:40;;;;;;;5.05;2.38;;;14.00;99.90;;;;;;5092331;28;20072;-63
2023/07/27 03:05:06;;;;;;;7.85;2.85;;;14.10;99.90;;;;;;5108884;28;20111;-63
2023/07/27 03:07:32;;;;;;;5.03;2.40;;;14.10;99.90;;;;;;5092362;28;20035;-63
2023/07/27 03:09:57;;;;;;;8.10;3.13;;;14.10;99.90;;;;;;5093145;28;20080;-63
2023/07/27 03:12:23;;;;;;;5.80;2.33;;;14.10;99.90;;;;;;5093432;28;20031;-63
2023/07/27 03:14:49;;;;;;;5.72;3.42;;;14.10;99.90;;;;;;5125346;27;20047;-63
2023/07/27 03:17:15;;;;;;;4.57;2.53;;;14.10;99.90;;;;;;5092233;28;20477;-63
2023/07/27 03:19:40;;;;;;;9.13;2.92;;;14.20;99.90;;;;;;5091410;28;20039;-63
2023/07/27 03:22:06;;;;;;;9.25;3.33;;;14.20;99.90;;;;;;5107990;28;20047;-63
2023/07/27 03:24:32;;;;;;;5.25;2.85;;;14.20;99.90;;;;;;5125751;27;20039;-63
2023/07/27 03:26:58;;;;;;;5.75;2.65;;;14.20;99.90;;;;;;5091742;28;20040;-63
2023/07/27 03:29:24;;;;;;;5.18;2.55;;;14.20;99.90;;;;;;5092357;28;20117;-63
2023/07/27 03:31:49;;;;;;;5.78;3.22;;;14.20;99.90;;;;;;5091204;28;20481;-63
2023/07/27 03:34:15;;;;;;;4.18;2.50;;;14.20;99.90;;;;;;5093112;28;20047;-63
2023/07/27 03:36:41;;;;;;;18.23;3.33;;;14.20;99.90;;;;;;5091737;28;20052;-63
2023/07/27 03:39:08;;;;;;;4.38;2.40;;;14.10;99.90;;;;;;5091640;28;20409;-63
2023/07/27 03:41:33;;;;;;;4.15;2.08;;;14.10;99.90;;;;;;5091324;28;20052;-64
2023/07/27 03:43:59;;;;;;;5.38;2.80;;;14.20;99.90;;;;;;5091757;28;20074;-64
2023/07/27 03:46:25;;;;;;;7.57;3.47;;;14.10;99.90;;;;;;5092920;28;20062;-63
2023/07/27 03:48:51;;;;;;;6.10;2.92;;;14.10;99.90;;;;;;5092325;28;20044;-64
2023/07/27 03:51:17;;;;;;;5.15;2.53;;;14.10;99.90;;;;;;5090133;28;20095;-64
2023/07/27 03:53:42;;;;;;;5.97;3.00;;;14.10;99.90;;;;;;5124994;27;20076;-64
2023/07/27 03:56:08;;;;;;;5.65;2.92;;;14.10;99.90;;;;;;5125559;27;20040;-64
2023/07/27 03:58:34;;;;;;;4.90;2.85;;;14.10;99.90;;;;;;5091429;28;20035;-64
2023/07/27 04:01:00;;;;;;;6.28;3.13;;;14.10;99.90;;;;;;5125593;27;20043;-64
2023/07/27 04:03:26;;;;;;;4.32;2.60;;;14.10;99.90;;;;;;5125560;27;20040;-64
2023/07/27 04:05:52;;;;;;;8.52;3.35;;;14.10;99.90;;;;;;5124403;27;20043;-64
2023/07/27 04:08:18;;;;;;;5.80;2.72;;;14.10;99.90;;;;;;5124851;27;20043;-64
2023/07/27 04:10:44;;;;;;;6.85;2.65;;;14.10;99.90;;;;;;5089816;28;20400;-64
2023/07/27 04:13:12;;;;;;;5.07;3.00;;;14.10;99.90;;;;;;5125040;27;20032;-64
2023/07/27 04:15:38;;;;;;;5.88;3.15;;;14.10;99.90;;;;;;5091420;28;20076;-64
2023/07/27 04:18:05;;;;;;;4.40;2.30;;;14.10;99.90;;;;;;5090409;28;20098;-64
2023/07/27 04:20:30;;;;;;;5.65;2.78;;;14.10;99.90;;;;;;5090765;28;20044;-64
2023/07/27 04:22:56;;;;;;;4.85;2.67;;;14.10;99.90;;;;;;5090565;28;20527;-64
2023/07/27 04:25:23;;;;;;;4.85;2.78;;;14.10;99.90;;;;;;5091857;28;20032;-64
2023/07/27 04:27:52;;;;;;;4.57;2.63;;;14.10;99.90;;;;;;5090424;28;20537;-64
2023/07/27 04:30:18;;;;;;;5.57;3.13;;;14.10;99.90;;;;;;5092193;28;20044;-64
2023/07/27 04:32:44;;;;;;;6.72;3.35;;;14.10;99.90;;;;;;5091153;28;20044;-64
2023/07/27 04:35:10;;;;;;;4.65;3.03;;;14.10;99.90;;;;;;5090002;28;20066;-64
2023/07/27 04:37:35;;;;;;;7.90;2.72;;;14.10;99.90;;;;;;5071660;28;20051;-64
2023/07/27 04:40:01;;;;;;;7.10;3.70;;;14.10;99.90;;;;;;5076202;28;20051;-64
2023/07/27 04:42:27;;;;;;;12.10;5.20;;;14.10;99.90;;;;;;5091133;28;20047;-65
2023/07/27 04:44:53;;;;;;;10.60;3.92;;;14.10;99.90;;;;;;5092117;28;20028;-65
2023/07/27 04:47:18;;;;;;;7.65;3.22;;;14.10;99.90;;;;;;5090129;28;20040;-65
2023/07/27 04:49:45;;;;;;;6.47;3.55;;;14.00;99.90;;;;;;5090526;28;20495;-65
2023/07/27 04:52:11;;;;;;;4.72;2.75;;;14.00;99.90;;;;;;5090913;28;20080;-64
2023/07/27 04:54:37;;;;;;;7.68;3.75;;;14.00;99.90;;;;;;5090082;28;20071;-64
2023/07/27 04:57:03;;;;;;;7.85;2.65;;;14.00;99.90;;;;;;5090578;28;20047;-64
2023/07/27 04:59:28;;;;;;;8.70;3.90;;;14.10;99.90;;;;;;5091558;28;20361;-65
2023/07/27 05:01:54;;;;;;;7.32;3.45;;;14.10;99.90;;;;;;5090929;28;20084;-65
2023/07/27 05:04:19;;;;;;;6.22;3.05;;;14.10;99.90;;;;;;5091995;28;20079;-64
2023/07/27 05:06:45;;;;;;;9.90;4.50;;;14.10;99.90;;;;;;5091221;28;20035;-65
2023/07/27 05:09:11;;;;;;;6.57;3.40;;;14.10;99.90;;;;;;5091208;28;20028;-64
2023/07/27 05:11:37;;;;;;;6.20;3.47;;;14.20;99.90;;;;;;5090605;28;20160;-64
2023/07/27 05:14:02;;;;;;;6.18;2.80;;;14.20;99.90;;;;;;5123765;28;20485;-64
2023/07/27 05:16:28;;;;;;;6.88;3.40;;;14.20;99.90;;;;;;5091774;28;20047;-64
2023/07/27 05:18:54;;;;;;;6.70;3.25;;;14.20;99.90;;;;;;5091696;28;20068;-65
2023/07/27 05:21:19;;;;;;;7.57;3.47;;;14.20;99.90;;;;;;5091113;28;20127;-64
2023/07/27 05:23:45;;;;;;;6.43;3.22;;;14.20;99.90;;;;;;5090089;28;20467;-65
2023/07/27 05:26:11;;;;;;;5.05;3.05;;;14.20;99.90;;;;;;5091523;28;20035;-65
2023/07/27 05:28:36;;;;;;;8.68;3.10;;;14.30;99.90;;;;;;5092571;28;20074;-64
2023/07/27 05:31:02;;;;;;;7.90;3.28;;;14.30;99.90;;;;;;5095078;28;20090;-64
2023/07/27 05:33:28;;;;;;;6.78;3.55;;;14.30;99.90;;;;;;5094221;28;20039;-64
2023/07/27 05:35:53;;;;;;;11.82;5.22;;;14.30;99.90;;;;;;5092993;28;20556;-64
2023/07/27 05:38:19;;;;;;;6.15;3.28;;;14.30;99.90;;;;;;5094053;28;20558;-64
2023/07/27 05:40:45;;;;;;;9.18;4.10;;;14.30;99.90;;;;;;5093617;28;20043;-64
2023/07/27 05:43:11;;;;;;;8.63;3.40;;;14.30;99.90;;;;;;5094447;28;20040;-64
2023/07/27 05:45:38;;;;;;;7.05;3.55;;;14.30;99.90;;;;;;5094934;28;20131;-64
2023/07/27 05:48:05;;;;;;;7.65;3.85;;;14.30;99.90;;;;;;5094843;28;20388;-64
2023/07/27 05:50:31;;;;;;;9.75;3.03;;;14.30;99.90;;;;;;5093798;28;20055;-64
2023/07/27 05:52:57;;;;;;;9.45;4.95;;;14.30;99.90;;;;;;5094833;28;20052;-64
2023/07/27 05:55:23;;;;;;;6.90;3.33;;;14.30;99.90;;;;;;5093408;28;20123;-64
2023/07/27 05:57:48;;;;;;;3.53;2.17;;;14.30;99.90;;;;;;5109274;28;20055;-64
2023/07/27 06:00:14;;;;;;;6.00;3.28;;;14.30;99.90;;;;;;5094842;28;20076;-64
2023/07/27 06:02:40;;;;;;;7.95;3.10;;;14.30;99.90;;;;;;5093006;28;20503;-65
2023/07/27 06:05:06;;;;;;;5.55;2.85;;;14.30;99.90;;;;;;5093105;28;20043;-64
2023/07/27 06:07:32;;;;;;;5.60;2.05;;;14.30;99.90;;;;;;5094302;28;20040;-65
2023/07/27 06:09:58;;;;;;;7.80;3.35;;;14.30;99.90;;;;;;5076326;28;20036;-64
2023/07/27 06:12:23;;;;;;;6.10;2.53;;;14.30;99.90;;;;;;5093946;28;20046;-64
2023/07/27 06:14:51;;;;;;;3.25;1.40;;;14.30;99.90;;;;;;5092980;28;20507;-64
2023/07/27 06:17:17;;;;;;;3.80;1.73;;;14.40;99.90;;;;;;5094523;28;20036;-64
2023/07/27 06:19:42;;;;;;;2.95;1.30;;;14.40;99.90;;;;;;5126299;27;20082;-64
2023/07/27 06:22:08;;;;;;;5.10;1.75;;;14.30;99.90;;;;;;5094630;28;20040;-64
2023/07/27 06:24:34;;;;;;;4.50;1.75;;;14.40;99.90;;;;;;5092982;28;20473;-64
2023/07/27 06:27:00;;;;;;;4.15;1.45;;;14.40;99.90;;;;;;5092366;28;20035;-64
2023/07/27 06:29:25;;;;;;;3.67;1.33;;;14.40;99.90;;;;;;5093197;28;20070;-64
2023/07/27 06:31:51;;;;;;;3.05;1.27;;;14.50;99.90;;;;;;5071096;28;20067;-65
2023/07/27 06:34:17;;;;;;;4.32;1.52;;;14.50;99.90;;;;;;5092102;28;20404;-64
2023/07/27 06:36:42;;;;;;;3.40;1.30;;;14.50;99.90;;;;;;5091849;28;20036;-64
2023/07/27 06:39:08;;;;;;;5.05;1.50;;;14.50;99.90;;;;;;5090776;28;20396;-65
2023/07/27 06:41:34;;;;;;;1.65;1.25;;;14.60;99.90;;;;;;5112286;28;20079;-64
2023/07/27 06:44:00;;;;;;;0.98;0.77;;;14.60;99.90;;;;;;5104452;28;20479;-64
2023/07/27 06:46:26;;;;;;;2.33;1.40;;;14.70;99.90;;;;;;5111247;28;20047;-65
2023/07/27 06:48:52;;;;;;;3.28;1.52;;;14.70;99.90;;;;;;5113959;28;20115;-64
2023/07/27 06:51:19;;;;;;;1.25;0.95;;;14.70;99.90;;;;;;5114088;28;20087;-64
2023/07/27 06:53:44;;;;;;;2.78;2.00;;;14.80;99.90;;;;;;5111657;28;20043;-65
2023/07/27 06:56:11;;;;;;;2.63;1.75;;;14.80;99.90;;;;;;5096710;28;20435;-64
2023/07/27 06:58:36;;;;;;;4.57;1.80;;;14.90;99.90;;;;;;5089947;28;20517;-65
2023/07/27 07:01:02;;;;;;;1.13;0.85;;;14.90;99.90;;;;;;5088311;28;20044;-64
2023/07/27 07:03:28;;;;;;;1.98;1.17;;;15.00;99.90;;;;;;5091990;28;20067;-64
2023/07/27 07:05:54;;;;;;;2.78;2.08;;;15.00;99.90;;;;;;5099721;28;20104;-64
2023/07/27 07:08:20;;;;;;;2.30;1.35;;;15.10;99.90;;;;;;5122450;27;20090;-64
2023/07/27 07:10:45;;;;;;;2.25;1.35;;;15.10;99.90;;;;;;5123157;27;20083;-64
2023/07/27 07:13:11;;;;;;;2.17;1.35;;;15.10;99.90;;;;;;5091970;28;20476;-64
2023/07/27 07:15:37;;;;;;;1.73;1.42;;;15.10;99.90;;;;;;5085976;28;20051;-64
2023/07/27 07:18:03;;;;;;;3.60;2.15;;;15.10;99.90;;;;;;5089136;28;20043;-64
2023/07/27 07:20:28;;;;;;;2.20;0.55;;;15.20;99.90;;;;;;5089647;28;20523;-65
2023/07/27 07:22:54;;;;;;;1.50;1.10;;;15.20;99.90;;;;;;5089728;28;20043;-65
2023/07/27 07:25:20;;;;;;;1.33;1.00;;;15.30;99.90;;;;;;5090494;28;20059;-65
2023/07/27 07:27:46;;;;;;;2.38;1.23;;;15.30;99.90;;;;;;5089199;28;20032;-65
2023/07/27 07:30:11;;;;;;;1.67;1.20;;;15.40;99.90;;;;;;5073838;28;20044;-64
2023/07/27 07:32:37;;;;;;;1.08;0.73;;;15.50;99.90;;;;;;5123170;27;20065;-64
2023/07/27 07:35:03;;;;;;;2.28;1.40;;;15.50;99.90;;;;;;5119333;27;20051;-64
2023/07/27 07:37:29;;;;;;;5.13;1.80;;;15.60;99.90;;;;;;5097850;28;20032;-65
2023/07/27 07:39:57;;;;;;;5.75;2.53;;;15.50;99.90;;;;;;5087634;28;20641;-65
2023/07/27 07:42:23;;;;;;;4.07;1.63;;;15.60;99.90;;;;;;5089192;28;20043;-65
2023/07/27 07:44:48;;;;;;;2.20;1.00;;;15.60;99.90;;;;;;5091468;28;20043;-65
2023/07/27 07:47:14;;;;;;;1.33;0.75;;;15.70;99.90;;;;;;5089133;28;20054;-65
2023/07/27 07:49:40;;;;;;;1.20;0.80;;;15.80;99.90;;;;;;5087643;28;20048;-65
2023/07/27 07:52:06;;;;;;;2.15;1.02;;;15.80;99.90;;;;;;5089859;28;20784;-65
2023/07/27 07:54:32;;;;;;;1.80;0.90;;;15.90;99.90;;;;;;5088587;28;20115;-65
2023/07/27 07:56:58;;;;;;;0.82;0.55;;;16.00;99.90;;;;;;5070834;28;20048;-65
2023/07/27 07:59:24;;;;;;;1.65;0.70;;;16.00;99.90;;;;;;5090065;28;20035;-65
2023/07/27 08:01:50;;;;;;;3.85;1.40;;;16.10;99.90;;;;;;5088329;28;20070;-64
2023/07/27 08:04:17;;;;;;;4.47;2.38;;;16.00;99.90;;;;;;5087199;28;20048;-64
2023/07/27 08:06:45;;;;;;;2.90;1.27;;;16.10;99.90;;;;;;5088972;28;20142;-63
2023/07/27 08:09:11;;;;;;;3.53;1.50;;;16.20;99.90;;;;;;5087656;28;20319;-68
2023/07/27 08:11:41;;;;;;;4.22;1.92;;;16.20;99.90;;;;;;5087368;28;20130;-62
2023/07/27 08:14:07;;;;;;;3.25;1.60;;;16.30;99.90;;;;;;5088207;28;20056;-66
2023/07/27 08:16:33;;;;;;;5.68;1.55;;;16.30;99.90;;;;;;5089435;28;20052;-66
2023/07/27 08:18:59;;;;;;;5.97;1.90;;;16.30;99.90;;;;;;5104044;28;20377;-67
2023/07/27 08:21:24;;;;;;;2.88;1.20;;;16.30;99.90;;;;;;5122137;27;20445;-66
2023/07/27 08:23:52;;;;;;;2.92;1.38;;;16.30;99.90;;;;;;5087645;28;20048;-66
2023/07/27 08:26:17;;;;;;;3.25;1.40;;;16.30;99.90;;;;;;5070742;28;20044;-66
2023/07/27 08:28:43;;;;;;;6.45;1.20;;;16.30;99.90;;;;;;5088777;28;20469;-66
2023/07/27 08:31:09;;;;;;;4.45;1.60;;;16.30;99.90;;;;;;5119711;28;20039;-66
2023/07/27 08:33:34;;;;;;;3.42;1.55;;;16.30;99.90;;;;;;5122347;28;20150;-66
2023/07/27 08:36:00;;;;;;;3.42;1.55;;;16.30;99.90;;;;;;5105619;28;20133;-60
2023/07/27 08:38:27;;;;;;;4.63;1.55;;;16.30;99.90;;;;;;5089291;28;20048;-61
2023/07/27 08:41:00;;;;;;;2.42;1.20;;;16.30;99.90;;;;;;5093310;28;20059;-60
2023/07/27 08:43:27;;;;;;;4.30;1.77;;;16.20;99.90;;;;;;5091338;28;20039;-61
2023/07/27 08:45:53;;;;;;;2.05;1.15;;;16.30;99.90;;;;;;5095103;28;20419;-61
2023/07/27 08:48:20;;;;;;;2.63;1.10;;;16.30;99.90;;;;;;5099802;28;20040;-60
2023/07/27 08:50:47;;;;;;;3.13;1.40;;;16.30;99.90;;;;;;5088736;28;20062;-61
2023/07/27 08:53:13;;;;;;;3.22;0.98;;;16.30;99.90;;;;;;5087660;28;20048;-61
2023/07/27 08:55:40;;;;;;;2.45;1.23;;;16.30;99.90;;;;;;5087400;28;20101;-61
2023/07/27 08:58:07;;;;;;;2.63;1.08;;;16.30;99.90;;;;;;5071137;28;20051;-62
2023/07/27 09:00:33;;;;;;;2.40;1.20;;;16.40;99.90;;;;;;5074543;28;20125;-61
2023/07/27 09:03:00;;;;;;;2.33;1.10;;;16.40;99.90;;;;;;5079230;28;20052;-61
2023/07/27 09:05:40;;;;;;;2.78;1.15;;;16.50;99.90;;;;;;5091459;28;20040;-61
2023/07/27 09:08:10;;;;;;;2.90;1.48;;;16.50;99.90;;;;;;5063739;28;20152;-61
2023/07/27 09:10:38;;;;;;;2.33;1.00;;;16.50;99.90;;;;;;5090517;28;20052;-61
2023/07/27 09:13:04;;;;;;;0.65;0.47;;;16.60;99.90;;;;;;5089268;28;20040;-61
2023/07/27 09:15:30;;;;;;;2.13;0.73;;;16.50;99.90;;;;;;5090048;28;20426;-62
2023/07/27 09:18:01;;;;;;;2.78;1.30;;;16.60;99.90;;;;;;5093765;28;20048;-62
2023/07/27 09:20:29;;;;;;;3.33;1.40;;;16.50;99.90;;;;;;5100552;28;20464;-61
2023/07/27 09:22:59;;;;;;;2.22;1.20;;;16.60;99.90;;;;;;5090644;28;20134;-62
2023/07/27 09:25:25;;;;;;;2.28;1.10;;;16.50;99.90;;;;;;5074476;28;20063;-67
2023/07/27 09:27:54;;;;;;;3.03;1.13;;;16.50;99.90;;;;;;5092768;28;20040;-67
2023/07/27 09:30:20;;;;;;;1.70;0.70;;;16.40;99.90;;;;;;5094059;28;20082;-67
2023/07/27 09:32:47;;;;;;;1.42;0.70;;;16.40;99.90;;;;;;5077186;28;20074;-67
2023/07/27 09:35:14;;;;;;;1.88;0.77;;;16.40;99.90;;;;;;5093829;28;20451;-66
2023/07/27 09:37:48;;;;;;;2.58;1.20;;;16.40;99.90;;;;;;5093812;28;20039;-67
2023/07/27 09:40:17;;;;;;;2.60;1.10;;;16.40;99.90;;;;;;5094074;28;20439;-67
2023/07/27 09:42:44;;;;;;;2.63;0.90;;;16.40;99.90;;;;;;5092187;28;20047;-66
2023/07/27 09:45:11;;;;;;;3.15;1.20;;;16.50;99.90;;;;;;5076669;28;20047;-66
2023/07/27 09:47:37;;;;;;;2.03;1.00;;;16.50;99.90;;;;;;5094353;28;20154;-67
2023/07/27 09:50:03;;;;;;;2.63;1.13;;;16.60;99.90;;;;;;5092672;28;20388;-66
2023/07/27 09:52:30;;;;;;;2.08;0.95;;;16.60;99.90;;;;;;5095027;28;20043;-67
2023/07/27 09:54:58;;;;;;;3.35;1.05;;;16.60;99.90;;;;;;5093763;28;20063;-67
2023/07/27 09:57:26;;;;;;;2.53;1.08;;;16.70;99.90;;;;;;5077228;28;20105;-66
2023/07/27 09:59:52;;;;;;;1.98;0.90;;;16.70;99.90;;;;;;5094134;28;20481;-66
2023/07/27 10:02:19;;;;;;;3.88;1.23;;;16.70;99.90;;;;;;5109283;28;20055;-66
2023/07/27 10:04:49;;;;;;;3.13;1.20;;;16.80;99.90;;;;;;5092202;28;20047;-66
2023/07/27 10:07:19;;;;;;;2.28;1.17;;;16.80;99.90;;;;;;5095041;28;20138;-66
2023/07/27 10:09:48;;;;;;;2.50;1.10;;;16.90;99.90;;;;;;5093589;28;20036;-66
2023/07/27 10:12:27;;;;;;;3.30;1.42;;;16.90;99.90;;;;;;5112439;27;20044;-66
2023/07/27 10:15:29;;;;;;;4.13;1.45;;;16.90;99.90;;;;;;5054923;28;20041;-66
2023/07/27 10:17:59;;;;;;;2.50;1.13;;;17.00;99.90;;;;;;5029404;28;20045;-66
2023/07/27 10:20:28;;;;;;;3.60;1.35;;;17.00;99.90;;;;;;5076868;28;20480;-66
2023/07/27 10:23:20;;;;;;;2.63;1.02;;;17.10;99.90;;;;;;5092409;28;20039;-66
2023/07/27 10:25:55;;;;;;;1.45;0.73;;;17.10;99.90;;;;;;5059238;28;20039;-65
2023/07/27 10:28:43;;;;;;;1.92;1.00;;;17.00;99.90;;;;;;5093182;28;20032;-66
2023/07/27 10:31:26;;;;;;;2.88;1.25;;;17.10;99.90;;;;;;5089664;28;20065;-66
2023/07/27 10:33:59;;;;;;;2.65;1.30;;;17.00;99.90;;;;;;5093394;28;20082;-66
2023/07/27 10:37:02;;;;;;;2.47;1.13;;;17.10;99.90;;;;;;5075864;28;20063;-67
2023/07/27 10:39:47;;;;;;;2.58;1.30;;;17.10;99.90;;;;;;5091603;28;20519;-65
2023/07/27 10:42:15;;;;;;;2.60;1.35;;;17.10;99.90;;;;;;5093009;28;20044;-65
2023/07/27 10:44:57;;;;;;;3.35;1.20;;;17.10;99.90;;;;;;5091758;28;20135;-66
2023/07/27 10:47:24;;;;;;;4.35;1.90;;;17.10;99.90;;;;;;5092533;28;20043;-66
2023/07/27 10:49:55;;;;;;;2.55;1.23;;;17.00;99.90;;;;;;5091407;28;20036;-66
2023/07/27 10:52:22;;;;;;;2.67;1.17;;;17.00;99.90;;;;;;5088120;28;20098;-66
2023/07/27 10:54:49;;;;;;;2.30;1.45;;;16.90;99.90;;;;;;5075767;28;20184;-66
2023/07/27 10:57:17;;;;;;;2.90;1.52;;;17.00;99.90;;;;;;5074046;28;20036;-66
2023/07/27 10:59:46;;;;;;;3.80;1.88;;;17.00;99.90;;;;;;5072287;28;20059;-66
2023/07/27 11:02:18;;;;;;;3.42;2.08;;;16.90;99.90;;;;;;5091651;28;20044;-65
2023/07/27 11:04:45;;;;;;;2.25;1.40;;;17.00;99.90;;;;;;5089829;28;20065;-65
2023/07/27 11:07:11;;;;;;;3.42;2.05;;;17.00;99.90;;;;;;5090643;28;20052;-65
2023/07/27 11:09:43;;;;;;;3.10;1.75;;;17.10;99.90;;;;;;5089616;28;20087;-65
2023/07/27 11:12:09;;;;;;;3.80;2.15;;;17.10;99.90;;;;;;5090218;28;20815;-65
2023/07/27 11:14:34;;;;;;;3.28;2.00;;;17.20;99.90;;;;;;5121236;27;20119;-65
2023/07/27 11:17:00;;;;;;;3.70;1.95;;;17.30;99.90;;;;;;5090368;28;20450;-65
2023/07/27 11:19:29;;;;;;;3.78;2.53;;;17.30;99.90;;;;;;5121187;27;20040;-65
2023/07/27 11:21:55;;;;;;;3.17;1.80;;;17.30;99.90;;;;;;5089586;28;20083;-65
2023/07/27 11:24:21;;;;;;;4.10;2.40;;;17.40;99.90;;;;;;5090310;28;20083;-62
2023/07/27 11:26:47;;;;;;;5.07;2.72;;;17.50;99.90;;;;;;5088022;28;20126;-62
2023/07/27 11:29:12;;;;;;;4.43;2.13;;;17.60;99.90;;;;;;5089667;28;20048;-62
2023/07/27 11:31:38;;;;;;;4.05;2.40;;;17.60;99.90;;;;;;5095470;28;20130;-62
2023/07/27 11:34:04;;;;;;;4.30;2.70;;;17.60;99.90;;;;;;5108997;28;20040;-62
2023/07/27 11:36:31;;;;;;;2.85;1.88;;;17.60;99.90;;;;;;5069257;28;20083;-62
2023/07/27 11:38:58;;;;;;;4.53;2.10;;;17.60;99.90;;;;;;5096785;28;20529;-62
2023/07/27 11:41:29;;;;;;;3.63;2.25;;;17.60;99.90;;;;;;5100361;28;20526;-62
2023/07/27 11:43:56;;;;;;;5.20;3.20;;;17.70;99.90;;;;;;5088677;28;20413;-62
2023/07/27 11:46:26;;;;;;;4.28;2.88;;;17.70;99.90;;;;;;5090615;28;20039;-62
2023/07/27 11:48:53;;;;;;;3.90;2.08;;;17.80;99.90;;;;;;5081895;28;20040;-62
2023/07/27 11:51:19;;;;;;;3.17;1.90;;;17.80;99.90;;;;;;5088672;28;20583;-62
2023/07/27 11:53:47;;;;;;;3.83;2.28;;;17.90;99.90;;;;;;5087838;28;20463;-62
2023/07/27 11:56:13;;;;;;;3.35;2.00;;;18.00;99.90;;;;;;5089038;28;20046;-61
2023/07/27 11:58:43;;;;;;;4.97;2.33;;;18.00;99.90;;;;;;5089746;28;20040;-62
2023/07/27 12:01:11;;;;;;;2.40;1.48;;;18.00;99.90;;;;;;5088778;28;20112;-62
2023/07/27 12:03:39;;;;;;;2.50;1.67;;;18.10;99.90;;;;;;5071287;28;20388;-62
2023/07/27 12:06:06;;;;;;;4.03;2.17;;;18.20;99.90;;;;;;5072099;28;20093;-62
2023/07/27 12:08:35;;;;;;;4.32;1.98;;;18.30;99.90;;;;;;5088008;28;20561;-62
2023/07/27 12:11:01;;;;;;;3.35;2.20;;;18.40;99.90;;;;;;5088387;28;20043;-62
2023/07/27 12:13:28;;;;;;;3.50;1.77;;;18.50;99.90;;;;;;5088342;28;20050;-62
2023/07/27 12:16:06;;;;;;;5.10;2.20;;;18.60;99.90;;;;;;5088117;28;20083;-62
2023/07/27 12:18:32;;;;;;;6.45;2.97;;;18.80;99.90;;;;;;5066741;28;20148;-63
2023/07/27 12:20:58;;;;;;;4.70;2.35;;;18.90;99.90;;;;;;5121654;27;20124;-63
2023/07/27 12:23:25;;;;;;;2.65;1.17;;;18.90;99.90;;;;;;5088185;28;20047;-62
2023/07/27 12:25:52;;;;;;;3.00;1.52;;;19.00;99.90;;;;;;5091636;28;20043;-62
2023/07/27 12:28:18;;;;;;;3.20;1.50;;;19.00;99.90;;;;;;5091399;28;20032;-62
2023/07/27 12:30:44;;;;;;;1.45;0.75;;;18.90;99.90;;;;;;5089913;28;20460;-62
2023/07/27 12:33:11;;;;;;;2.13;0.90;;;18.80;99.90;;;;;;5092581;28;20036;-62
2023/07/27 12:35:37;;;;;;;2.05;1.23;;;18.80;99.90;;;;;;5091035;28;20089;-63
2023/07/27 12:38:03;;;;;;;1.98;1.13;;;18.80;99.90;;;;;;5092955;28;20069;-62
2023/07/27 12:40:29;;;;;;;1.98;0.90;;;18.80;99.90;;;;;;5094775;28;20047;-62
2023/07/27 12:42:55;;;;;;;1.88;0.80;;;18.90;99.90;;;;;;5094833;28;20098;-61
2023/07/27 12:45:21;;;;;;;1.38;0.65;;;18.90;99.90;;;;;;5095986;28;20354;-62
2023/07/27 12:47:48;;;;;;;1.60;0.60;;;18.90;99.90;;;;;;5093277;28;20400;-62